Time;durP1;ratioP1;P1;durP2;ratioP2;P2;SDS_P1;SDS_P2;PMS_P1;PMS_P2;Temp;Humidity;BMP_temperature;BMP_pressure;BME280_temperature;BME280_humidity;BME280_pressure;Samples;Min_cycle;Max_cycle;Signal;HPM_P1;HPM_P2
2020/12/26 00:00:42;;;;;;;;;;;20.50;26.90;;;;;;491720;240;1270;-69
2020/12/26 00:02:43;;;;;;;;;;;20.50;26.90;;;;;;491675;240;1124;-69
2020/12/26 00:04:44;;;;;;;;;;;20.50;26.80;;;;;;491709;240;1096;-69
2020/12/26 00:06:45;;;;;;;;;;;20.50;26.80;;;;;;491609;240;1028;-69
2020/12/26 00:08:50;;;;;;;;;;;20.50;26.80;;;;;;491648;240;2191;-70
2020/12/26 00:10:51;;;;;;;;;;;20.60;26.80;;;;;;491535;240;1576;-69
2020/12/26 00:12:52;;;;;;;;;;;20.50;26.80;;;;;;491694;240;1109;-69
2020/12/26 00:14:53;;;;;;;;;;;20.50;26.90;;;;;;491683;240;1111;-69
2020/12/26 00:16:55;;;;;;;;;;;20.50;27.00;;;;;;491564;240;962;-69
2020/12/26 00:18:56;;;;;;;;;;;20.50;27.00;;;;;;491697;240;1073;-69
2020/12/26 00:20:58;;;;;;;;;;;20.50;26.90;;;;;;491676;240;1099;-69
2020/12/26 00:22:59;;;;;;;;;;;20.50;26.90;;;;;;491674;240;1198;-69
2020/12/26 00:25:01;;;;;;;;;;;20.50;26.90;;;;;;491714;240;975;-69
2020/12/26 00:27:02;;;;;;;;;;;20.50;27.00;;;;;;491654;240;956;-69
2020/12/26 00:29:03;;;;;;;;;;;20.50;27.00;;;;;;491641;240;2144;-69
2020/12/26 00:31:04;;;;;;;;;;;20.50;27.00;;;;;;491732;240;1185;-69
2020/12/26 00:33:05;;;;;;;;;;;20.50;27.00;;;;;;491591;240;1184;-69
2020/12/26 00:35:07;;;;;;;;;;;20.50;27.10;;;;;;491653;240;1035;-69
2020/12/26 00:37:08;;;;;;;;;;;20.50;27.10;;;;;;491599;240;993;-69
2020/12/26 00:39:09;;;;;;;;;;;20.50;27.10;;;;;;491689;240;1168;-69
2020/12/26 00:41:10;;;;;;;;;;;20.60;27.10;;;;;;491680;240;1046;-69
2020/12/26 00:43:12;;;;;;;;;;;20.50;27.10;;;;;;491708;240;1241;-69
2020/12/26 00:45:13;;;;;;;;;;;20.50;27.10;;;;;;491615;240;1141;-69
2020/12/26 00:47:14;;;;;;;;;;;20.50;27.20;;;;;;491634;240;1199;-69
2020/12/26 00:49:16;;;;;;;;;;;20.50;27.20;;;;;;491700;240;2185;-69
2020/12/26 00:51:17;;;;;;;;;;;20.60;27.20;;;;;;491635;240;1085;-69
2020/12/26 00:53:18;;;;;;;;;;;20.60;27.20;;;;;;491626;240;1297;-69
2020/12/26 00:55:19;;;;;;;;;;;20.50;27.30;;;;;;491626;240;998;-69
2020/12/26 00:57:21;;;;;;;;;;;20.50;27.30;;;;;;491528;240;1210;-69
2020/12/26 00:59:22;;;;;;;;;;;20.60;27.30;;;;;;491652;240;954;-69
2020/12/26 01:01:23;;;;;;;;;;;20.50;27.30;;;;;;491595;240;1166;-69
2020/12/26 01:03:25;;;;;;;;;;;20.50;27.40;;;;;;491599;240;1162;-69
2020/12/26 01:05:26;;;;;;;;;;;20.50;27.40;;;;;;491638;241;1318;-69
2020/12/26 01:07:28;;;;;;;;;;;20.50;27.40;;;;;;491645;240;1237;-69
2020/12/26 01:09:29;;;;;;;;;;;20.50;27.50;;;;;;491749;240;2176;-69
2020/12/26 01:11:30;;;;;;;;;;;20.50;27.50;;;;;;491635;240;941;-69
2020/12/26 01:13:31;;;;;;;;;;;20.50;27.50;;;;;;491647;240;1410;-69
2020/12/26 01:15:33;;;;;;;;;;;20.50;27.60;;;;;;491713;240;1165;-69
2020/12/26 01:17:34;;;;;;;;;;;20.50;27.60;;;;;;491587;240;1183;-70
2020/12/26 01:19:35;;;;;;;;;;;20.50;27.50;;;;;;491637;240;967;-69
2020/12/26 01:21:37;;;;;;;;;;;20.50;27.60;;;;;;491623;240;1019;-69
2020/12/26 01:23:38;;;;;;;;;;;20.50;27.60;;;;;;491626;239;1224;-69
2020/12/26 01:25:39;;;;;;;;;;;20.60;27.60;;;;;;491627;240;1033;-69
2020/12/26 01:27:40;;;;;;;;;;;20.50;27.60;;;;;;491635;240;1051;-69
2020/12/26 01:29:42;;;;;;;;;;;20.50;27.60;;;;;;491648;240;2129;-69
2020/12/26 01:31:43;;;;;;;;;;;20.50;27.70;;;;;;491649;240;1191;-69
2020/12/26 01:33:44;;;;;;;;;;;20.50;27.70;;;;;;491682;240;944;-69
2020/12/26 01:35:45;;;;;;;;;;;20.50;27.70;;;;;;491575;240;1037;-70
2020/12/26 01:37:47;;;;;;;;;;;20.50;27.70;;;;;;491577;240;986;-69
2020/12/26 01:39:48;;;;;;;;;;;20.50;27.80;;;;;;491661;240;1165;-69
2020/12/26 01:41:49;;;;;;;;;;;20.40;27.70;;;;;;491660;240;1002;-69
2020/12/26 01:43:51;;;;;;;;;;;20.40;27.80;;;;;;491651;240;956;-69
2020/12/26 01:45:52;;;;;;;;;;;20.50;27.80;;;;;;491669;240;1273;-69
2020/12/26 01:47:53;;;;;;;;;;;20.50;27.70;;;;;;491628;240;1047;-69
2020/12/26 01:49:54;;;;;;;;;;;20.60;27.70;;;;;;491631;240;2179;-69
2020/12/26 01:51:56;;;;;;;;;;;20.50;27.70;;;;;;491625;240;1039;-69
2020/12/26 01:53:57;;;;;;;;;;;20.50;27.80;;;;;;491630;240;1096;-69
2020/12/26 01:55:58;;;;;;;;;;;20.50;27.80;;;;;;491657;240;1032;-69
2020/12/26 01:58:00;;;;;;;;;;;20.50;27.80;;;;;;491664;240;1022;-69
2020/12/26 02:00:01;;;;;;;;;;;20.50;27.80;;;;;;491674;240;1304;-69
2020/12/26 02:02:02;;;;;;;;;;;20.50;27.80;;;;;;491627;240;1175;-69
2020/12/26 02:04:03;;;;;;;;;;;20.50;27.90;;;;;;491663;240;1042;-69
2020/12/26 02:06:05;;;;;;;;;;;20.50;27.80;;;;;;491635;240;1086;-69
2020/12/26 02:08:06;;;;;;;;;;;20.50;27.80;;;;;;491638;240;1032;-69
2020/12/26 02:10:07;;;;;;;;;;;20.40;27.80;;;;;;491657;240;2136;-69
2020/12/26 02:12:08;;;;;;;;;;;20.40;27.90;;;;;;491538;240;992;-70
2020/12/26 02:14:10;;;;;;;;;;;20.50;27.90;;;;;;491676;240;936;-69
2020/12/26 02:16:13;;;;;;;;;;;20.40;27.90;;;;;;491627;238;1272;-69
2020/12/26 02:18:13;;;;;;;;;;;20.40;28.00;;;;;;491601;241;1438;-69
2020/12/26 02:20:15;;;;;;;;;;;20.40;27.90;;;;;;491637;240;1089;-69
2020/12/26 02:22:16;;;;;;;;;;;20.40;27.90;;;;;;491661;240;1192;-69
2020/12/26 02:24:17;;;;;;;;;;;20.40;27.90;;;;;;491738;240;951;-69
2020/12/26 02:26:18;;;;;;;;;;;20.40;27.90;;;;;;491626;240;972;-70
2020/12/26 02:28:20;;;;;;;;;;;20.40;27.90;;;;;;491636;240;1244;-69
2020/12/26 02:30:21;;;;;;;;;;;20.40;28.00;;;;;;491609;240;2128;-69
2020/12/26 02:32:22;;;;;;;;;;;20.40;28.00;;;;;;491605;240;1164;-69
2020/12/26 02:34:23;;;;;;;;;;;20.40;28.00;;;;;;491612;240;990;-69
2020/12/26 02:36:25;;;;;;;;;;;20.40;28.00;;;;;;491640;240;1099;-69
2020/12/26 02:38:26;;;;;;;;;;;20.40;28.00;;;;;;491731;240;1355;-69
2020/12/26 02:40:27;;;;;;;;;;;20.40;28.00;;;;;;491655;240;1094;-69
2020/12/26 02:42:29;;;;;;;;;;;20.40;28.00;;;;;;491594;240;1123;-69
2020/12/26 02:44:30;;;;;;;;;;;20.40;28.00;;;;;;491602;240;1047;-70
2020/12/26 02:46:31;;;;;;;;;;;20.40;27.90;;;;;;491669;240;1180;-69
2020/12/26 02:48:32;;;;;;;;;;;20.40;27.90;;;;;;491726;240;1133;-69
2020/12/26 02:50:34;;;;;;;;;;;20.50;27.90;;;;;;491626;240;2187;-69
2020/12/26 02:52:35;;;;;;;;;;;20.50;27.90;;;;;;491532;240;1070;-69
2020/12/26 02:54:36;;;;;;;;;;;20.50;28.00;;;;;;491664;240;1034;-69
2020/12/26 02:56:37;;;;;;;;;;;20.40;28.00;;;;;;491612;240;976;-69
2020/12/26 02:58:40;;;;;;;;;;;20.40;28.00;;;;;;491657;240;986;-69
2020/12/26 03:00:41;;;;;;;;;;;20.40;28.00;;;;;;491597;241;1408;-69
2020/12/26 03:02:42;;;;;;;;;;;20.40;28.00;;;;;;491557;240;1180;-69
2020/12/26 03:04:43;;;;;;;;;;;20.40;28.00;;;;;;491686;240;966;-69
2020/12/26 03:06:45;;;;;;;;;;;20.40;28.00;;;;;;491602;240;1230;-69
2020/12/26 03:08:46;;;;;;;;;;;20.40;28.00;;;;;;491647;240;1219;-69
2020/12/26 03:10:47;;;;;;;;;;;20.40;28.00;;;;;;491654;240;2180;-69
2020/12/26 03:12:48;;;;;;;;;;;20.40;28.00;;;;;;491636;240;1048;-69
2020/12/26 03:14:50;;;;;;;;;;;20.40;28.00;;;;;;491650;240;970;-69
2020/12/26 03:16:51;;;;;;;;;;;20.40;27.90;;;;;;491682;240;1253;-69
2020/12/26 03:18:52;;;;;;;;;;;20.50;27.90;;;;;;491558;240;1154;-69
2020/12/26 03:20:53;;;;;;;;;;;20.50;27.90;;;;;;491678;240;941;-69
2020/12/26 03:22:55;;;;;;;;;;;20.50;27.90;;;;;;491661;240;940;-69
2020/12/26 03:24:56;;;;;;;;;;;20.50;28.00;;;;;;491674;240;985;-69
2020/12/26 03:26:57;;;;;;;;;;;20.50;28.00;;;;;;491630;240;1051;-69
2020/12/26 03:28:59;;;;;;;;;;;20.40;27.90;;;;;;491703;240;947;-69
2020/12/26 03:31:00;;;;;;;;;;;20.40;27.90;;;;;;491665;240;2136;-70
2020/12/26 03:33:01;;;;;;;;;;;20.40;28.00;;;;;;491595;240;1147;-69
2020/12/26 03:35:03;;;;;;;;;;;20.40;28.00;;;;;;491640;240;1025;-69
2020/12/26 03:37:04;;;;;;;;;;;20.50;27.90;;;;;;491586;240;973;-69
2020/12/26 03:39:05;;;;;;;;;;;20.50;27.90;;;;;;491665;240;1024;-69
2020/12/26 03:41:07;;;;;;;;;;;20.50;27.90;;;;;;491615;240;1077;-69
2020/12/26 03:43:08;;;;;;;;;;;20.50;27.90;;;;;;491658;240;1354;-69
2020/12/26 03:45:09;;;;;;;;;;;20.40;27.90;;;;;;491694;240;938;-69
2020/12/26 03:47:10;;;;;;;;;;;20.40;28.00;;;;;;491623;238;1268;-69
2020/12/26 03:49:12;;;;;;;;;;;20.50;27.90;;;;;;491607;240;1103;-69
2020/12/26 03:51:13;;;;;;;;;;;20.50;27.90;;;;;;491629;240;2195;-69
2020/12/26 03:53:14;;;;;;;;;;;20.50;27.90;;;;;;491657;240;1204;-69
2020/12/26 03:55:16;;;;;;;;;;;20.50;27.90;;;;;;491686;240;963;-69
2020/12/26 03:57:17;;;;;;;;;;;20.40;27.90;;;;;;491691;240;1170;-69
2020/12/26 03:59:18;;;;;;;;;;;20.40;28.00;;;;;;491652;240;971;-70
2020/12/26 04:01:19;;;;;;;;;;;20.40;28.00;;;;;;491680;240;981;-69
2020/12/26 04:03:21;;;;;;;;;;;20.40;28.00;;;;;;491786;240;1252;-69
2020/12/26 04:05:22;;;;;;;;;;;20.40;28.00;;;;;;491717;240;971;-69
2020/12/26 04:07:23;;;;;;;;;;;20.40;27.90;;;;;;491607;240;1053;-69
2020/12/26 04:09:25;;;;;;;;;;;20.50;28.00;;;;;;491620;240;984;-69
2020/12/26 04:11:26;;;;;;;;;;;20.50;27.90;;;;;;491644;240;2136;-69
2020/12/26 04:13:27;;;;;;;;;;;20.40;27.90;;;;;;491608;240;970;-69
2020/12/26 04:15:28;;;;;;;;;;;20.40;28.00;;;;;;491616;240;923;-69
2020/12/26 04:17:30;;;;;;;;;;;20.40;28.00;;;;;;491653;240;1132;-69
2020/12/26 04:19:31;;;;;;;;;;;20.40;28.00;;;;;;491667;240;944;-69
2020/12/26 04:21:32;;;;;;;;;;;20.30;28.10;;;;;;491729;240;957;-69
2020/12/26 04:23:33;;;;;;;;;;;20.30;28.00;;;;;;491650;240;979;-69
2020/12/26 04:25:35;;;;;;;;;;;20.40;28.10;;;;;;491622;240;1013;-69
2020/12/26 04:27:36;;;;;;;;;;;20.40;28.00;;;;;;491609;240;1387;-69
2020/12/26 04:29:37;;;;;;;;;;;20.40;28.00;;;;;;491617;240;934;-69
2020/12/26 04:31:38;;;;;;;;;;;20.40;28.00;;;;;;491575;240;2145;-69
2020/12/26 04:33:40;;;;;;;;;;;20.40;28.00;;;;;;491611;240;1205;-69
2020/12/26 04:35:41;;;;;;;;;;;20.40;28.00;;;;;;491604;240;961;-69
2020/12/26 04:37:43;;;;;;;;;;;20.40;28.00;;;;;;491657;240;1048;-69
2020/12/26 04:39:44;;;;;;;;;;;20.40;27.90;;;;;;491561;240;1086;-69
2020/12/26 04:41:45;;;;;;;;;;;20.40;27.90;;;;;;491589;240;1230;-69
2020/12/26 04:43:46;;;;;;;;;;;20.40;27.90;;;;;;491658;240;974;-69
2020/12/26 04:45:48;;;;;;;;;;;20.50;27.90;;;;;;491557;240;1032;-69
2020/12/26 04:47:49;;;;;;;;;;;20.40;27.90;;;;;;491599;240;1162;-69
2020/12/26 04:49:50;;;;;;;;;;;20.40;28.00;;;;;;491598;240;1069;-69
2020/12/26 04:51:52;;;;;;;;;;;20.40;27.90;;;;;;491603;240;2192;-69
2020/12/26 04:53:53;;;;;;;;;;;20.30;27.90;;;;;;491635;240;1060;-69
2020/12/26 04:55:54;;;;;;;;;;;20.30;28.00;;;;;;491616;240;955;-69
2020/12/26 04:57:55;;;;;;;;;;;20.30;28.00;;;;;;491579;240;960;-69
2020/12/26 04:59:57;;;;;;;;;;;20.30;28.00;;;;;;491617;240;1046;-69
2020/12/26 05:01:58;;;;;;;;;;;20.40;28.00;;;;;;491640;240;971;-69
2020/12/26 05:03:59;;;;;;;;;;;20.50;27.90;;;;;;491541;240;1218;-69
2020/12/26 05:06:01;;;;;;;;;;;20.40;27.90;;;;;;491652;240;963;-69
2020/12/26 05:08:02;;;;;;;;;;;20.40;28.00;;;;;;491704;240;1068;-69
2020/12/26 05:10:03;;;;;;;;;;;20.30;28.00;;;;;;491687;240;959;-69
2020/12/26 05:12:04;;;;;;;;;;;20.40;28.00;;;;;;491697;240;2137;-69
2020/12/26 05:14:06;;;;;;;;;;;20.40;28.00;;;;;;491615;240;966;-69
2020/12/26 05:16:07;;;;;;;;;;;20.30;28.00;;;;;;491593;240;1035;-69
2020/12/26 05:18:08;;;;;;;;;;;20.20;28.00;;;;;;491569;240;1196;-69
2020/12/26 05:20:10;;;;;;;;;;;20.20;28.10;;;;;;491714;240;1048;-69
2020/12/26 05:22:11;;;;;;;;;;;20.20;28.10;;;;;;491654;240;1059;-69
2020/12/26 05:24:12;;;;;;;;;;;20.20;28.10;;;;;;491766;240;969;-69
2020/12/26 05:26:13;;;;;;;;;;;20.20;28.20;;;;;;491640;240;962;-69
2020/12/26 05:28:15;;;;;;;;;;;20.10;28.20;;;;;;491606;240;1128;-69
2020/12/26 05:30:16;;;;;;;;;;;20.10;28.20;;;;;;491756;240;1030;-69
2020/12/26 05:32:17;;;;;;;;;;;20.20;28.20;;;;;;491503;240;2176;-69
2020/12/26 05:34:18;;;;;;;;;;;20.20;28.20;;;;;;491725;240;1178;-70
2020/12/26 05:36:20;;;;;;;;;;;20.20;28.10;;;;;;491583;240;1063;-69
2020/12/26 05:38:21;;;;;;;;;;;20.20;28.20;;;;;;491710;240;1056;-69
2020/12/26 05:40:22;;;;;;;;;;;20.10;28.20;;;;;;491654;240;944;-69
2020/12/26 05:42:24;;;;;;;;;;;20.10;28.20;;;;;;491577;240;977;-69
2020/12/26 05:44:25;;;;;;;;;;;20.10;28.20;;;;;;491659;240;1013;-69
2020/12/26 05:46:26;;;;;;;;;;;20.10;28.30;;;;;;491531;240;927;-69
2020/12/26 05:48:28;;;;;;;;;;;20.20;28.30;;;;;;491579;240;1119;-69
2020/12/26 05:50:29;;;;;;;;;;;20.20;28.20;;;;;;491578;240;1024;-70
2020/12/26 05:52:30;;;;;;;;;;;20.20;28.20;;;;;;491602;240;2191;-69
2020/12/26 05:54:31;;;;;;;;;;;20.20;28.20;;;;;;491633;240;961;-69
2020/12/26 05:56:33;;;;;;;;;;;20.20;28.20;;;;;;491617;240;1139;-69
2020/12/26 05:58:34;;;;;;;;;;;20.20;28.20;;;;;;491673;240;1087;-69
2020/12/26 06:00:35;;;;;;;;;;;20.20;28.20;;;;;;491633;240;1309;-69
2020/12/26 06:02:37;;;;;;;;;;;20.20;28.30;;;;;;491544;240;1085;-69
2020/12/26 06:04:38;;;;;;;;;;;20.10;28.30;;;;;;491594;240;1244;-69
2020/12/26 06:06:39;;;;;;;;;;;20.10;28.30;;;;;;491543;240;1231;-69
2020/12/26 06:08:40;;;;;;;;;;;20.20;28.30;;;;;;491668;240;1079;-70
2020/12/26 06:10:42;;;;;;;;;;;20.20;28.30;;;;;;491556;240;1143;-69
2020/12/26 06:12:43;;;;;;;;;;;20.20;28.20;;;;;;491576;240;2128;-69
2020/12/26 06:14:44;;;;;;;;;;;20.20;28.30;;;;;;491679;240;961;-69
2020/12/26 06:16:45;;;;;;;;;;;20.10;28.20;;;;;;491684;240;1021;-69
2020/12/26 06:18:47;;;;;;;;;;;20.20;28.20;;;;;;491635;240;1140;-69
2020/12/26 06:20:48;;;;;;;;;;;20.20;28.20;;;;;;491661;240;950;-69
2020/12/26 06:22:49;;;;;;;;;;;20.10;28.20;;;;;;491616;240;996;-69
2020/12/26 06:24:51;;;;;;;;;;;20.10;28.30;;;;;;491626;240;955;-69
2020/12/26 06:26:52;;;;;;;;;;;20.20;28.30;;;;;;491677;240;942;-69
2020/12/26 06:28:53;;;;;;;;;;;20.20;28.30;;;;;;491622;240;947;-69
2020/12/26 06:30:54;;;;;;;;;;;20.10;28.20;;;;;;491636;240;2191;-69
2020/12/26 06:32:56;;;;;;;;;;;20.10;28.20;;;;;;491592;240;1108;-69
2020/12/26 06:34:57;;;;;;;;;;;20.10;28.20;;;;;;491619;240;1288;-69
2020/12/26 06:36:58;;;;;;;;;;;20.10;28.30;;;;;;491456;240;1061;-69
2020/12/26 06:38:59;;;;;;;;;;;20.10;28.30;;;;;;491604;240;982;-69
2020/12/26 06:41:01;;;;;;;;;;;20.10;28.30;;;;;;491520;240;1034;-69
2020/12/26 06:43:02;;;;;;;;;;;20.10;28.20;;;;;;491516;240;1137;-69
2020/12/26 06:45:03;;;;;;;;;;;20.10;28.20;;;;;;491743;240;1011;-69
2020/12/26 06:47:05;;;;;;;;;;;20.00;28.20;;;;;;491604;240;1084;-69
2020/12/26 06:49:06;;;;;;;;;;;20.10;28.20;;;;;;491626;240;1176;-69
2020/12/26 06:51:07;;;;;;;;;;;20.10;28.20;;;;;;491566;240;2165;-69
2020/12/26 06:53:08;;;;;;;;;;;20.20;28.10;;;;;;491613;240;1086;-69
2020/12/26 06:55:10;;;;;;;;;;;20.20;28.10;;;;;;491627;240;955;-69
2020/12/26 06:57:11;;;;;;;;;;;20.30;28.10;;;;;;491561;240;1008;-69
2020/12/26 06:59:12;;;;;;;;;;;20.20;28.10;;;;;;491536;240;1037;-69
2020/12/26 07:01:13;;;;;;;;;;;20.20;28.00;;;;;;491562;240;964;-69
2020/12/26 07:03:15;;;;;;;;;;;20.20;28.00;;;;;;491606;240;1358;-69
2020/12/26 07:05:16;;;;;;;;;;;20.20;28.00;;;;;;491658;240;1146;-69
2020/12/26 07:07:17;;;;;;;;;;;20.30;28.10;;;;;;491601;240;1219;-69
2020/12/26 07:09:19;;;;;;;;;;;20.30;28.00;;;;;;491641;240;1062;-69
2020/12/26 07:11:20;;;;;;;;;;;20.20;28.00;;;;;;491618;240;2187;-69
2020/12/26 07:13:21;;;;;;;;;;;20.20;27.90;;;;;;491609;240;1208;-69
2020/12/26 07:15:22;;;;;;;;;;;20.30;28.00;;;;;;491638;240;978;-69
2020/12/26 07:17:24;;;;;;;;;;;20.30;27.90;;;;;;491630;240;1157;-69
2020/12/26 07:19:25;;;;;;;;;;;20.30;27.90;;;;;;491651;240;1436;-69
2020/12/26 07:21:26;;;;;;;;;;;20.30;27.90;;;;;;491657;240;1209;-69
2020/12/26 07:23:28;;;;;;;;;;;20.30;27.90;;;;;;491652;240;1112;-69
2020/12/26 07:25:29;;;;;;;;;;;20.30;27.80;;;;;;491648;240;1022;-69
2020/12/26 07:27:30;;;;;;;;;;;20.40;27.80;;;;;;491622;240;1183;-69
2020/12/26 07:29:31;;;;;;;;;;;20.40;27.70;;;;;;491709;240;1040;-69
2020/12/26 07:31:33;;;;;;;;;;;20.30;27.70;;;;;;491595;240;2191;-69
2020/12/26 07:33:34;;;;;;;;;;;20.30;27.70;;;;;;491501;240;1089;-69
2020/12/26 07:35:35;;;;;;;;;;;20.30;27.70;;;;;;491575;240;1163;-69
2020/12/26 07:37:37;;;;;;;;;;;20.40;27.60;;;;;;491643;240;1235;-69
2020/12/26 07:39:38;;;;;;;;;;;20.30;27.60;;;;;;491696;240;986;-69
2020/12/26 07:41:39;;;;;;;;;;;20.30;27.60;;;;;;491595;240;1279;-69
2020/12/26 07:43:44;;;;;;;;;;;20.30;27.50;;;;;;491551;240;970;-69
2020/12/26 07:45:42;;;;;;;;;;;20.30;27.50;;;;;;491595;241;1314;-69
2020/12/26 07:47:43;;;;;;;;;;;20.30;27.50;;;;;;491596;240;1242;-69
2020/12/26 07:49:44;;;;;;;;;;;20.30;27.40;;;;;;491584;240;1160;-69
2020/12/26 07:51:46;;;;;;;;;;;20.30;27.30;;;;;;491602;240;2136;-69
2020/12/26 07:53:47;;;;;;;;;;;20.30;27.20;;;;;;491508;240;1162;-69
2020/12/26 07:55:48;;;;;;;;;;;20.30;27.30;;;;;;491676;240;1360;-69
2020/12/26 07:57:49;;;;;;;;;;;20.30;27.20;;;;;;491630;240;1042;-69
2020/12/26 07:59:51;;;;;;;;;;;20.30;27.10;;;;;;491651;240;1094;-70
2020/12/26 08:01:52;;;;;;;;;;;20.30;27.00;;;;;;491637;240;955;-69
2020/12/26 08:03:53;;;;;;;;;;;20.30;27.00;;;;;;491561;240;936;-69
2020/12/26 08:05:54;;;;;;;;;;;20.30;27.00;;;;;;491638;240;1219;-69
2020/12/26 08:07:56;;;;;;;;;;;20.20;27.00;;;;;;491597;240;969;-69
2020/12/26 08:09:58;;;;;;;;;;;20.30;27.00;;;;;;491600;240;1348;-69
2020/12/26 08:11:58;;;;;;;;;;;20.30;26.90;;;;;;491574;240;2180;-69
2020/12/26 08:14:00;;;;;;;;;;;20.30;27.00;;;;;;491603;240;1027;-69
2020/12/26 08:16:01;;;;;;;;;;;20.30;26.90;;;;;;491568;240;1074;-69
2020/12/26 08:18:03;;;;;;;;;;;20.40;26.90;;;;;;491616;240;986;-69
2020/12/26 08:20:04;;;;;;;;;;;20.40;26.80;;;;;;491588;240;1318;-69
2020/12/26 08:22:05;;;;;;;;;;;20.40;26.80;;;;;;491581;240;1043;-69
2020/12/26 08:24:06;;;;;;;;;;;20.40;26.70;;;;;;491636;240;1132;-69
2020/12/26 08:26:07;;;;;;;;;;;20.40;26.80;;;;;;491424;240;977;-70
2020/12/26 08:28:09;;;;;;;;;;;20.40;26.80;;;;;;491586;240;990;-70
2020/12/26 08:30:10;;;;;;;;;;;20.40;26.80;;;;;;491673;240;959;-69
2020/12/26 08:32:11;;;;;;;;;;;20.40;26.80;;;;;;491523;240;2183;-69
2020/12/26 08:34:13;;;;;;;;;;;20.40;26.80;;;;;;491622;240;1116;-69
2020/12/26 08:36:14;;;;;;;;;;;20.30;26.80;;;;;;491541;240;1124;-69
2020/12/26 08:38:15;;;;;;;;;;;20.30;26.90;;;;;;491577;240;995;-69
2020/12/26 08:40:17;;;;;;;;;;;20.40;26.80;;;;;;491586;240;963;-69
2020/12/26 08:42:18;;;;;;;;;;;20.40;26.90;;;;;;491583;240;977;-69
2020/12/26 08:44:19;;;;;;;;;;;20.20;26.80;;;;;;491630;240;1122;-69
2020/12/26 08:46:22;;;;;;;;;;;20.30;26.80;;;;;;491441;240;1262;-69
2020/12/26 08:48:22;;;;;;;;;;;20.30;26.70;;;;;;491424;242;1572;-69
2020/12/26 08:50:23;;;;;;;;;;;20.30;26.80;;;;;;491544;238;1316;-69
2020/12/26 08:52:24;;;;;;;;;;;20.30;26.80;;;;;;491552;240;2179;-69
2020/12/26 08:54:25;;;;;;;;;;;20.30;26.70;;;;;;491601;240;1070;-69
2020/12/26 08:56:27;;;;;;;;;;;20.30;26.80;;;;;;491661;240;1164;-69
2020/12/26 08:58:28;;;;;;;;;;;20.30;26.80;;;;;;491601;240;1094;-69
2020/12/26 09:00:29;;;;;;;;;;;20.30;26.80;;;;;;491560;240;1092;-69
2020/12/26 09:02:31;;;;;;;;;;;20.30;26.80;;;;;;491513;240;1218;-69
2020/12/26 09:04:32;;;;;;;;;;;20.30;26.70;;;;;;491645;240;1108;-69
2020/12/26 09:06:33;;;;;;;;;;;20.30;26.70;;;;;;491539;240;1185;-69
2020/12/26 09:08:34;;;;;;;;;;;20.30;26.70;;;;;;491634;240;1060;-69
2020/12/26 09:10:36;;;;;;;;;;;20.20;26.80;;;;;;491618;240;1412;-69
2020/12/26 09:12:37;;;;;;;;;;;20.30;26.80;;;;;;491533;240;2203;-69
2020/12/26 09:14:38;;;;;;;;;;;20.30;26.80;;;;;;491541;240;972;-69
2020/12/26 09:16:39;;;;;;;;;;;20.30;26.80;;;;;;491563;240;1110;-69
2020/12/26 09:18:41;;;;;;;;;;;20.30;26.80;;;;;;491657;240;1052;-69
2020/12/26 09:20:42;;;;;;;;;;;20.30;26.70;;;;;;491599;240;1247;-69
2020/12/26 09:22:44;;;;;;;;;;;20.40;26.70;;;;;;491597;240;1042;-69
2020/12/26 09:24:45;;;;;;;;;;;20.40;26.70;;;;;;491589;240;1070;-69
2020/12/26 09:26:46;;;;;;;;;;;20.30;26.70;;;;;;491505;240;1221;-69
2020/12/26 09:28:48;;;;;;;;;;;20.40;26.70;;;;;;491472;240;1000;-69
2020/12/26 09:30:49;;;;;;;;;;;20.30;26.60;;;;;;491574;240;1248;-69
2020/12/26 09:32:50;;;;;;;;;;;20.40;26.60;;;;;;491536;240;2191;-69
2020/12/26 09:34:51;;;;;;;;;;;20.40;26.70;;;;;;491602;240;1014;-69
2020/12/26 09:36:53;;;;;;;;;;;20.40;26.60;;;;;;491524;240;1343;-69
2020/12/26 09:38:54;;;;;;;;;;;20.40;26.60;;;;;;491519;240;938;-69
2020/12/26 09:40:55;;;;;;;;;;;20.40;26.50;;;;;;491525;240;995;-69
2020/12/26 09:42:56;;;;;;;;;;;20.40;26.50;;;;;;491542;240;1139;-69
2020/12/26 09:44:58;;;;;;;;;;;20.40;26.50;;;;;;491572;240;1060;-69
2020/12/26 09:46:59;;;;;;;;;;;20.30;26.50;;;;;;491505;240;1183;-69
2020/12/26 09:49:00;;;;;;;;;;;20.40;26.40;;;;;;491489;240;997;-69
2020/12/26 09:51:02;;;;;;;;;;;20.50;26.40;;;;;;491575;240;964;-69
2020/12/26 09:53:03;;;;;;;;;;;20.50;26.30;;;;;;491426;240;2179;-69
2020/12/26 09:55:04;;;;;;;;;;;20.50;26.30;;;;;;491674;240;1085;-69
2020/12/26 09:57:05;;;;;;;;;;;20.40;26.30;;;;;;491579;240;1062;-69
2020/12/26 09:59:07;;;;;;;;;;;20.40;26.20;;;;;;491628;240;1041;-69
2020/12/26 10:01:08;;;;;;;;;;;20.40;26.10;;;;;;491551;240;1129;-69
2020/12/26 10:03:09;;;;;;;;;;;20.40;26.20;;;;;;491585;240;1065;-69
2020/12/26 10:05:10;;;;;;;;;;;20.40;26.20;;;;;;491618;240;1047;-69
2020/12/26 10:07:12;;;;;;;;;;;20.40;26.10;;;;;;491634;240;1143;-69
2020/12/26 10:09:13;;;;;;;;;;;20.40;26.10;;;;;;491524;240;934;-69
2020/12/26 10:11:14;;;;;;;;;;;20.40;26.10;;;;;;491532;240;1097;-69
2020/12/26 10:13:16;;;;;;;;;;;20.40;25.90;;;;;;491633;240;2120;-69
2020/12/26 10:15:18;;;;;;;;;;;20.40;26.00;;;;;;491593;240;952;-69
2020/12/26 10:17:19;;;;;;;;;;;20.40;25.90;;;;;;491540;240;1085;-69
2020/12/26 10:19:20;;;;;;;;;;;20.40;25.90;;;;;;491541;240;974;-69
2020/12/26 10:21:21;;;;;;;;;;;20.40;25.90;;;;;;491566;240;981;-70
2020/12/26 10:23:22;;;;;;;;;;;20.40;25.90;;;;;;491647;240;1206;-69
2020/12/26 10:25:25;;;;;;;;;;;20.40;25.80;;;;;;491587;240;944;-69
2020/12/26 10:27:26;;;;;;;;;;;20.40;25.80;;;;;;491566;240;974;-69
2020/12/26 10:29:28;;;;;;;;;;;20.40;25.70;;;;;;491616;240;967;-69
2020/12/26 10:31:29;;;;;;;;;;;20.30;25.70;;;;;;491579;240;978;-69
2020/12/26 10:33:30;;;;;;;;;;;20.40;25.60;;;;;;491561;240;2160;-69
2020/12/26 10:35:31;;;;;;;;;;;20.50;25.60;;;;;;491543;240;1113;-69
2020/12/26 10:37:33;;;;;;;;;;;20.50;25.60;;;;;;491442;240;1167;-69
2020/12/26 10:39:34;;;;;;;;;;;20.50;25.60;;;;;;491623;240;977;-69
2020/12/26 10:41:35;;;;;;;;;;;20.40;25.50;;;;;;491506;240;1042;-69
2020/12/26 10:43:36;;;;;;;;;;;20.50;25.60;;;;;;491540;240;1040;-69
2020/12/26 10:45:38;;;;;;;;;;;20.50;25.50;;;;;;491668;240;1055;-69
2020/12/26 10:47:39;;;;;;;;;;;20.50;25.50;;;;;;491576;240;985;-69
2020/12/26 10:49:40;;;;;;;;;;;20.50;25.50;;;;;;491525;240;1012;-69
2020/12/26 10:51:42;;;;;;;;;;;20.50;25.50;;;;;;491682;240;970;-69
2020/12/26 10:53:43;;;;;;;;;;;20.50;25.40;;;;;;491551;240;2218;-69
2020/12/26 10:55:44;;;;;;;;;;;20.50;25.40;;;;;;491438;240;1101;-69
2020/12/26 10:57:45;;;;;;;;;;;20.50;25.30;;;;;;491599;240;1047;-69
2020/12/26 10:59:47;;;;;;;;;;;20.50;25.40;;;;;;491611;240;1042;-69
2020/12/26 11:01:48;;;;;;;;;;;20.50;25.40;;;;;;491536;240;1067;-69
2020/12/26 11:03:49;;;;;;;;;;;20.40;25.40;;;;;;491635;240;1041;-69
2020/12/26 11:05:51;;;;;;;;;;;20.50;25.40;;;;;;491609;240;1216;-69
2020/12/26 11:07:52;;;;;;;;;;;20.40;25.40;;;;;;491574;240;1141;-69
2020/12/26 11:09:53;;;;;;;;;;;20.40;25.50;;;;;;491652;240;993;-69
2020/12/26 11:11:54;;;;;;;;;;;20.40;25.40;;;;;;491501;240;1096;-69
2020/12/26 11:13:56;;;;;;;;;;;20.50;25.50;;;;;;491638;240;2187;-69
2020/12/26 11:15:57;;;;;;;;;;;20.40;25.50;;;;;;491691;240;982;-69
2020/12/26 11:17:58;;;;;;;;;;;20.50;25.40;;;;;;491650;240;1020;-69
2020/12/26 11:19:59;;;;;;;;;;;20.50;25.30;;;;;;491646;240;1029;-69
2020/12/26 11:22:01;;;;;;;;;;;20.50;25.30;;;;;;491608;240;1123;-69
2020/12/26 11:24:02;;;;;;;;;;;20.50;25.40;;;;;;491678;240;1148;-69
2020/12/26 11:26:03;;;;;;;;;;;20.50;25.30;;;;;;491599;240;986;-69
2020/12/26 11:28:04;;;;;;;;;;;20.50;25.40;;;;;;491583;240;989;-69
2020/12/26 11:30:06;;;;;;;;;;;20.60;25.30;;;;;;491541;240;957;-70
2020/12/26 11:32:07;;;;;;;;;;;20.60;25.30;;;;;;491681;240;1089;-69
2020/12/26 11:34:10;;;;;;;;;;;20.50;25.30;;;;;;491665;240;2191;-69
2020/12/26 11:36:11;;;;;;;;;;;20.50;25.20;;;;;;491569;240;1042;-69
2020/12/26 11:38:12;;;;;;;;;;;20.60;25.30;;;;;;491601;240;1134;-69
2020/12/26 11:40:13;;;;;;;;;;;20.50;25.20;;;;;;491605;240;1350;-69
2020/12/26 11:42:15;;;;;;;;;;;20.60;25.30;;;;;;491527;240;1097;-70
2020/12/26 11:44:16;;;;;;;;;;;20.50;25.30;;;;;;491585;240;989;-69
2020/12/26 11:46:17;;;;;;;;;;;20.60;25.40;;;;;;491516;240;953;-69
2020/12/26 11:48:18;;;;;;;;;;;20.60;25.40;;;;;;491489;240;1079;-69
2020/12/26 11:50:20;;;;;;;;;;;20.60;25.40;;;;;;491616;240;970;-69
2020/12/26 11:52:21;;;;;;;;;;;20.60;25.40;;;;;;491578;240;988;-69
2020/12/26 11:54:22;;;;;;;;;;;20.60;25.30;;;;;;491648;240;2140;-69
2020/12/26 11:56:25;;;;;;;;;;;20.60;25.30;;;;;;491632;240;1018;-69
2020/12/26 11:58:25;;;;;;;;;;;20.60;25.30;;;;;;491562;242;1344;-69